Terminal Aerodrome Forecast
Issued by NWS

Current Version | Previous Version | Graphics & Text | Print | Product List | Glossary On
Versions: 1 2 3 4 5 6 7 8 9 10 11 12 13 14 15 16 17 18 19 20 21 22 23 24 25
000
FTUS41 KRLX 220900 AAA
TAFCKB
TAF AMD
KCKB 220930Z 2210/2306 19005KT P6SM BKN250
     FM221200 VRB04KT P6SM -SHRA OVC060
     FM221600 24009KT 5SM SHRA OVC035
     FM221700 25009G17KT 4SM SHRA OVC040
     FM221900 26011G20KT P6SM BKN035=

USA.gov is the U.S. government's official web portal to all federal, state and local government web resources and services.